Friday, October 31, 2014, 10:00 AM EDT

KOFP, Hanover County Municipal

Location: Ashland, VA, United States Lat: 37.7
Local Time: 10:00 AM EDT (14:00 GMT) Lon: -77.433
Time Zone: US/Eastern Elev: 203 ft

Show me the last for .
Show Decoded

2014-10-31 08:54 METAR KOFP 311254Z AUTO 00000KT 9SM CLR 06/03 A3000 RMK AO2 SLP161 T00610033 =
2014-10-31 07:54 METAR KOFP 311154Z AUTO 00000KT 8SM CLR 04/03 A3000 RMK AO2 SLP158 T00390028
                 10061 20033 55006 =
2014-10-31 06:54 METAR KOFP 311054Z AUTO VRB03KT 10SM CLR 04/02 A3000 RMK AO2 SLP158 T00440022 =
2014-10-31 05:54 METAR KOFP 310954Z AUTO 00000KT 10SM BKN060 06/03 A3001 RMK AO2 SLP161 T00560033
                 =
2014-10-31 04:54 METAR KOFP 310854Z AUTO 00000KT 10SM OVC060 06/04 A3002 RMK AO2 SLP165 T00560039
                 56006 =
2014-10-31 02:54 METAR KOFP 310654Z AUTO 00000KT 9SM CLR 04/03 A3003 RMK AO2 SLP168 T00390028 =
2014-10-31 01:54 METAR KOFP 310554Z AUTO 00000KT 10SM CLR 04/03 A3003 RMK AO2 SLP171 T00440028
                 10094 20044 58008 =
2014-10-31 00:54 METAR KOFP 310454Z AUTO 00000KT 10SM CLR 05/03 A3004 RMK AO2 SLP174 T00500028
                 401720050 =
2014-10-30 23:54 METAR KOFP 310354Z AUTO 00000KT 10SM CLR 06/03 A3006 RMK AO2 SLP178 T00560033 =
2014-10-30 22:54 METAR KOFP 310254Z AUTO 00000KT 10SM CLR 08/03 A3006 RMK AO2 SLP179 T00780028
                 53002 =
2014-10-30 21:54 METAR KOFP 310154Z AUTO 36004KT 10SM FEW060 09/03 A3006 RMK AO2 SLP179 T00890028
                 =
2014-10-30 20:54 METAR KOFP 310054Z AUTO 00000KT 10SM BKN060 09/04 A3005 RMK AO2 SLP177 T00890044
                 =
2014-10-30 19:54 METAR KOFP 302354Z AUTO 00000KT 10SM OVC060 09/04 A3005 RMK AO2 SLP177 T00940044
                 10172 20089 51009 =
2014-10-30 18:54 METAR KOFP 302254Z AUTO 00000KT 10SM OVC060 11/05 A3005 RMK AO2 SLP176 T01060050
                 =
2014-10-30 17:54 METAR KOFP 302154Z AUTO 33003KT 10SM CLR 14/03 A3004 RMK AO2 SLP171 T01390028 =
2014-10-30 16:54 METAR KOFP 302054Z AUTO 35005KT 10SM BKN060 16/03 A3003 RMK AO2 SLP167 T01560028
                 56006 =
2014-10-30 15:54 METAR KOFP 301954Z AUTO VRB04KT 10SM BKN060 16/03 A3003 RMK AO2 SLP167 T01610033
                 =
2014-10-30 14:54 METAR KOFP 301854Z AUTO 30008KT 10SM FEW055 17/03 A3003 RMK AO2 SLP168 T01670033
                 =
2014-10-30 13:54 METAR KOFP 301754Z AUTO 29006KT 10SM CLR 16/03 A3004 RMK AO2 SLP173 T01610028
                 10167 20072 58016 =
2014-10-30 12:54 METAR KOFP 301654Z AUTO 32006KT 10SM CLR 16/03 A3006 RMK AO2 SLP180 T01560033 =
2014-10-30 11:54 METAR KOFP 301554Z AUTO VRB06KT 10SM CLR 15/05 A3009 RMK AO2 SLP187 T01500050 =
2014-10-30 10:54 METAR KOFP 301454Z AUTO 33007KT 10SM CLR 13/05 A3009 RMK AO2 SLP189 T01330050
                 51010 =

Support USWX by starting your Amazon purchase here.